Newburg Corners, Wisconsin
Current Conditions -  °F | °C
As of 9:45 AM on Monday 22 Dec 2014 (Local Time) from KLSE Reporting Station
Overcast Overcast  
Wind Chill: 31°   Ceiling: 3100
Heat Index: 39°   Visibility: 8mi
Dew Point: 32°   Wind: 13mph
Humidity: 76%   Direction: 130°SE
Pressure: 29.76"   Gusts: NA
Location:  43.8385°N, 90.9811°W
Report Text: KLSE 221545Z 13011KT 8SM SCT018 OVC031 04/00 A2976 RMK AO2 T00390000
Loading
Personal Weather Stations






























Interactive Weather Map New forecast layout! Learn more

10-Day Weather Forecast

Advertisements
Track Severe Weather on mobile